Appleton, MN (56208)

7:28 AM CDT on September 03, 2015 (GMT -0500)
Appleton Municipal | | Change Station
CLOSE
Current Station
Airport
Location: Appleton,
Elevation: 1017 ft
Nearby Weather Stations
Active Advisory: Dense Fog Advisory

Elev 1017 ft 45.23 °N, 96.00 °W | Updated 14 minutes ago

Overcast
Overcast
72 °F
Feels Like 72 °F
N
8
Wind Variable Wind from SE

Today
High -- | Low -- °F
--% Chance of Precip.
Yesterday
High -- | Low -- °F
Precip. -- in
6:47 AM 7:58 PM
Waning Gibbous, 70% visible
Pressure 29.84 in
Visibility 0.8 miles
Clouds Overcast 200 ft
Dew Point 68 °F
Humidity 88%
Rainfall 0.00 in
Snow Depth Not available.
UV 0 out of 12
Pollen 9.90 out of 12
Air Quality Not available.
Flu Activity Not available.
METAR KAQP 031214Z AUTO 13007KT 3/4SM BR OVC002 22/20 A2984 RMK AO2
Pressure 29.84 in
Visibility 0.8 miles
Clouds Overcast 200 ft
Dew Point 68 °F
Humidity 88%
Rainfall 0.00 in
Snow Depth Not available.
UV 0 out of 12
Pollen 9.90 out of 12
Air Quality Not available.
Flu Activity Not available.
METAR KAQP 031214Z AUTO 13007KT 3/4SM BR OVC002 22/20 A2984 RMK AO2

10-Day Weather Forecast

×

Almanac

Astronomy

Sep. 03, 2015 Rise Set
Actual Time
Civil Twilight
Nautical Twilight
Astronomical Twilight
Moon
Length of Visible Light
Length of Day
Tomorrow will be .
, % of the Moon is Illuminated

Today's Extremes

State Highs State Lows

Community

WunderPhotos

Upload Photos

1,851,945 photos uploaded!

WunderBlogs® & News

Nearby

Air Quality

  Air Quality AQ Index Pollutant
Not available.

Snow Depth

Station Depth Elevation

Earthquake Activity

City Distance Mag. Time & Date
Minimum magnitude displayed is 2.5.

Coastal Water Temperatures

Place Temperature

Stations

Nearby Weather Stations

Station Location Temp. Windchill Dew Point Humidity Wind Precip. Elev Updated Type
                   
Dense Fog Advisory
Statement as of 6:04 AM CDT on September 03, 2015

... Dense fog advisory remains in effect until 9 am CDT this
morning...

* visibility... reduced to one quarter mile or less.

* Impacts... significantly reduced visibility which will lead to
hazardous driving conditions.

Precautionary/preparedness actions...

A dense fog advisory means visibilities will frequently be
reduced to less than one quarter mile. If driving... slow down...
use your headlights... and leave plenty of distance ahead of you.
Be extra aware of children awaiting school buses or walking to
school.